createdAt,value
2022-11-20T00:00:18.000Z,1006.2
2022-11-20T00:01:35.000Z,1006.2
2022-11-20T00:02:51.000Z,1006.2
2022-11-20T00:04:07.000Z,1006.2
2022-11-20T00:05:24.000Z,1006.2
2022-11-20T00:06:40.000Z,1006.2
2022-11-20T00:09:13.000Z,1006.2
2022-11-20T00:10:29.000Z,1006.2
2022-11-20T00:11:45.000Z,1006.2
2022-11-20T00:13:01.000Z,1006.2
2022-11-20T00:15:34.000Z,1006.1
2022-11-20T00:16:49.000Z,1006.1
2022-11-20T00:18:06.000Z,1006.1
2022-11-20T00:19:22.000Z,1006.1
2022-11-20T00:20:38.000Z,1006.1
2022-11-20T00:21:54.000Z,1006.1
2022-11-20T00:23:11.000Z,1006.2
2022-11-20T00:24:27.000Z,1006.2
2022-11-20T00:25:43.000Z,1006.2
2022-11-20T00:28:16.000Z,1006.2
2022-11-20T00:29:31.000Z,1006.2
2022-11-20T00:30:47.000Z,1006.2
2022-11-20T00:32:03.000Z,1006.1
2022-11-20T00:34:35.000Z,1006.1
2022-11-20T00:35:52.000Z,1006.1
2022-11-20T00:37:08.000Z,1006.1
2022-11-20T00:38:24.000Z,1006.1
2022-11-20T00:39:40.000Z,1006.1
2022-11-20T00:40:57.000Z,1006.2
2022-11-20T00:42:13.000Z,1006.2
2022-11-20T00:43:29.000Z,1006.2
2022-11-20T00:44:46.000Z,1006.2
2022-11-20T00:46:02.000Z,1006.3
2022-11-20T00:47:18.000Z,1006.2
2022-11-20T00:48:34.000Z,1006.2
2022-11-20T00:49:50.000Z,1006.3
2022-11-20T00:51:06.000Z,1006.2
2022-11-20T00:52:22.000Z,1006.3
2022-11-20T00:53:39.000Z,1006.3
2022-11-20T00:54:55.000Z,1006.3
2022-11-20T00:56:11.000Z,1006.3
2022-11-20T00:57:27.000Z,1006.3
2022-11-20T00:58:42.000Z,1006.3
2022-11-20T00:59:58.000Z,1006.2
2022-11-20T01:01:14.000Z,1006.3
2022-11-20T01:02:31.000Z,1006.2
2022-11-20T01:03:47.000Z,1006.2
2022-11-20T01:06:20.000Z,1006.2
2022-11-20T01:07:36.000Z,1006.2
2022-11-20T01:08:52.000Z,1006.2
2022-11-20T01:10:08.000Z,1006.2
2022-11-20T01:11:25.000Z,1006.2
2022-11-20T01:13:57.000Z,1006.2
2022-11-20T01:15:13.000Z,1006.2
2022-11-20T01:16:28.000Z,1006.3
2022-11-20T01:19:01.000Z,1006.2
2022-11-20T01:20:17.000Z,1006.2
2022-11-20T01:22:49.000Z,1006.2
2022-11-20T01:24:06.000Z,1006.2
2022-11-20T01:25:22.000Z,1006.2
2022-11-20T01:26:38.000Z,1006.2
2022-11-20T01:27:55.000Z,1006.2
2022-11-20T01:29:11.000Z,1006.2
2022-11-20T01:30:27.000Z,1006.2
2022-11-20T01:31:42.000Z,1006.1
2022-11-20T01:32:58.000Z,1006.1
2022-11-20T01:34:14.518Z,1006
2022-11-20T01:35:30.000Z,1006
2022-11-20T01:36:47.000Z,1006
2022-11-20T01:38:03.000Z,1006
2022-11-20T01:39:19.000Z,1005.9
2022-11-20T01:40:35.000Z,1005.9
2022-11-20T01:41:52.000Z,1005.8
2022-11-20T01:43:08.000Z,1005.9
2022-11-20T01:44:24.000Z,1005.9
2022-11-20T01:45:40.000Z,1005.8
2022-11-20T01:46:55.000Z,1005.8
2022-11-20T01:48:11.000Z,1005.8
2022-11-20T01:50:44.000Z,1005.8
2022-11-20T01:52:00.000Z,1005.9
2022-11-20T01:53:16.000Z,1005.8
2022-11-20T01:54:33.000Z,1005.8
2022-11-20T01:55:49.000Z,1005.8
2022-11-20T01:57:05.000Z,1005.8
2022-11-20T01:58:22.000Z,1005.7
2022-11-20T01:59:38.000Z,1005.8
2022-11-20T02:00:54.000Z,1005.7
2022-11-20T02:02:10.000Z,1005.7
2022-11-20T02:03:26.000Z,1005.7
2022-11-20T02:04:42.000Z,1005.7
2022-11-20T02:05:58.000Z,1005.7
2022-11-20T02:07:15.000Z,1005.7
2022-11-20T02:08:31.000Z,1005.6
2022-11-20T02:09:47.000Z,1005.6
2022-11-20T02:11:03.000Z,1005.7
2022-11-20T02:12:20.000Z,1005.6
2022-11-20T02:13:35.000Z,1005.7
2022-11-20T02:14:50.000Z,1005.7
2022-11-20T02:16:07.000Z,1005.7
2022-11-20T02:17:23.000Z,1005.7
2022-11-20T02:18:39.000Z,1005.7
2022-11-20T02:19:55.000Z,1005.6
2022-11-20T02:21:12.000Z,1005.7
2022-11-20T02:22:28.000Z,1005.7
2022-11-20T02:23:44.000Z,1005.7
2022-11-20T02:25:01.000Z,1005.6
2022-11-20T02:26:17.000Z,1005.7
2022-11-20T02:27:33.000Z,1005.6
2022-11-20T02:28:50.000Z,1005.6
2022-11-20T02:30:06.000Z,1005.6
2022-11-20T02:31:21.000Z,1005.7
2022-11-20T02:32:37.000Z,1005.6
2022-11-20T02:35:10.000Z,1005.6
2022-11-20T02:36:26.000Z,1005.6
2022-11-20T02:37:43.000Z,1005.5
2022-11-20T02:38:59.000Z,1005.6
2022-11-20T02:40:15.000Z,1005.5
2022-11-20T02:41:31.000Z,1005.5
2022-11-20T02:42:48.000Z,1005.5
2022-11-20T02:44:04.000Z,1005.6
2022-11-20T02:45:20.000Z,1005.6
2022-11-20T02:47:53.000Z,1005.5
2022-11-20T02:49:08.000Z,1005.5
2022-11-20T02:51:41.000Z,1005.5
2022-11-20T02:52:57.000Z,1005.5
2022-11-20T02:54:12.000Z,1005.5
2022-11-20T02:55:28.000Z,1005.5
2022-11-20T02:56:44.000Z,1005.5
2022-11-20T02:58:00.000Z,1005.4
2022-11-20T02:59:17.000Z,1005.6
2022-11-20T03:00:33.000Z,1005.6
2022-11-20T03:01:49.000Z,1005.6
2022-11-20T03:04:22.000Z,1005.5
2022-11-20T03:05:38.000Z,1005.5
2022-11-20T03:06:54.000Z,1005.5
2022-11-20T03:08:11.000Z,1005.5
2022-11-20T03:09:27.000Z,1005.4
2022-11-20T03:10:43.000Z,1005.4
2022-11-20T03:11:58.000Z,1005.5
2022-11-20T03:13:15.000Z,1005.5
2022-11-20T03:14:31.000Z,1005.4
2022-11-20T03:15:47.000Z,1005.4
2022-11-20T03:17:04.000Z,1005.5
2022-11-20T03:18:20.000Z,1005.5
2022-11-20T03:19:36.000Z,1005.5
2022-11-20T03:20:52.000Z,1005.5
2022-11-20T03:22:08.000Z,1005.5
2022-11-20T03:23:23.000Z,1005.4
2022-11-20T03:25:56.000Z,1005.4
2022-11-20T03:27:12.000Z,1005.3
2022-11-20T03:28:28.000Z,1005.3
2022-11-20T03:29:44.000Z,1005.4
2022-11-20T03:31:01.000Z,1005.3
2022-11-20T03:32:17.000Z,1005.3
2022-11-20T03:33:33.000Z,1005.3
2022-11-20T03:34:50.000Z,1005.2
2022-11-20T03:36:06.000Z,1005.2
2022-11-20T03:38:38.000Z,1005.2
2022-11-20T03:39:54.000Z,1005.2
2022-11-20T03:41:09.000Z,1005.2
2022-11-20T03:42:25.000Z,1005.2
2022-11-20T03:43:42.000Z,1005.3
2022-11-20T03:44:58.000Z,1005.3
2022-11-20T03:46:14.000Z,1005.3
2022-11-20T03:47:31.000Z,1005.2
2022-11-20T03:48:47.000Z,1005.3
2022-11-20T03:50:03.000Z,1005.2
2022-11-20T03:51:19.000Z,1005.2
2022-11-20T03:52:36.000Z,1005.2
2022-11-20T03:53:51.000Z,1005.2
2022-11-20T03:55:06.000Z,1005.2
2022-11-20T03:56:23.000Z,1005.3
2022-11-20T03:57:39.000Z,1005.2
2022-11-20T03:58:55.000Z,1005.2
2022-11-20T04:00:11.000Z,1005.2
2022-11-20T04:01:28.000Z,1005.2
2022-11-20T04:04:00.000Z,1005.2
2022-11-20T04:05:17.000Z,1005.2
2022-11-20T04:06:33.000Z,1005.2
2022-11-20T04:07:49.000Z,1005.2
2022-11-20T04:09:06.000Z,1005.1
2022-11-20T04:10:22.000Z,1005.1
2022-11-20T04:11:37.000Z,1005
2022-11-20T04:12:53.000Z,1005.1
2022-11-20T04:14:10.000Z,1005.1
2022-11-20T04:16:42.000Z,1005.1
2022-11-20T04:17:58.000Z,1005.1
2022-11-20T04:19:13.000Z,1005.1
2022-11-20T04:20:29.000Z,1005
2022-11-20T04:21:45.000Z,1005.1
2022-11-20T04:23:02.000Z,1005.1
2022-11-20T04:24:18.000Z,1005.1
2022-11-20T04:25:34.000Z,1005.1
2022-11-20T04:26:51.000Z,1005.1
2022-11-20T04:28:07.000Z,1005.1
2022-11-20T04:29:23.000Z,1005.1
2022-11-20T04:30:39.000Z,1005.2
2022-11-20T04:31:55.000Z,1005.1
2022-11-20T04:33:10.000Z,1005.2
2022-11-20T04:34:26.000Z,1005.2
2022-11-20T04:35:43.000Z,1005.2
2022-11-20T04:36:59.000Z,1005.1
2022-11-20T04:38:15.000Z,1005.1
2022-11-20T04:39:32.000Z,1005
2022-11-20T04:40:48.000Z,1005.1
2022-11-20T04:42:04.000Z,1005.1
2022-11-20T04:43:20.000Z,1005.1
2022-11-20T04:44:37.000Z,1005.1
2022-11-20T04:45:53.000Z,1005.1
2022-11-20T04:47:09.000Z,1005.1
2022-11-20T04:48:26.000Z,1005.2
2022-11-20T04:49:41.000Z,1005.2
2022-11-20T04:50:57.000Z,1005.2
2022-11-20T04:52:13.000Z,1005.2
2022-11-20T04:54:46.000Z,1005.2
2022-11-20T04:56:02.000Z,1005.2
2022-11-20T04:57:19.000Z,1005.1
2022-11-20T04:58:35.000Z,1005.1
2022-11-20T04:59:51.000Z,1005.1
2022-11-20T05:01:07.000Z,1005
2022-11-20T05:02:24.000Z,1005.1
2022-11-20T05:03:40.000Z,1005.2
2022-11-20T05:04:56.000Z,1005.2
2022-11-20T05:06:13.000Z,1005.2
2022-11-20T05:07:28.000Z,1005.2
2022-11-20T05:08:44.000Z,1005.2
2022-11-20T05:10:00.000Z,1005.2
2022-11-20T05:11:17.000Z,1005.2
2022-11-20T05:12:33.000Z,1005.2
2022-11-20T05:13:49.000Z,1005.1
2022-11-20T05:15:06.000Z,1005.1
2022-11-20T05:16:22.000Z,1005.1
2022-11-20T05:17:38.000Z,1005.1
2022-11-20T05:18:54.000Z,1005.2
2022-11-20T05:20:11.000Z,1005.2
2022-11-20T05:21:27.000Z,1005.2
2022-11-20T05:22:43.000Z,1005.2
2022-11-20T05:23:59.000Z,1005.2
2022-11-20T05:25:15.000Z,1005.2
2022-11-20T05:26:31.000Z,1005.2
2022-11-20T05:27:48.000Z,1005.2
2022-11-20T05:29:04.000Z,1005.2
2022-11-20T05:30:20.000Z,1005.2
2022-11-20T05:31:36.000Z,1005.2
2022-11-20T05:32:53.000Z,1005.1
2022-11-20T05:34:09.000Z,1005.2
2022-11-20T05:35:25.000Z,1005.2
2022-11-20T05:36:42.000Z,1005.2
2022-11-20T05:37:58.000Z,1005.1
2022-11-20T05:39:14.000Z,1005.1
2022-11-20T05:40:29.000Z,1005.1
2022-11-20T05:41:46.000Z,1005
2022-11-20T05:43:02.000Z,1005
2022-11-20T05:45:35.000Z,1005.1
2022-11-20T05:46:51.000Z,1005.1
2022-11-20T05:48:07.000Z,1005
2022-11-20T05:49:23.000Z,1005.1
2022-11-20T05:50:40.000Z,1005.1
2022-11-20T05:51:56.000Z,1005
2022-11-20T05:54:29.000Z,1005.1
2022-11-20T05:55:45.000Z,1005.1
2022-11-20T05:57:00.000Z,1005.1
2022-11-20T05:58:16.000Z,1005
2022-11-20T05:59:33.000Z,1005.1
2022-11-20T06:00:49.000Z,1005
2022-11-20T06:02:05.000Z,1005
2022-11-20T06:03:22.000Z,1005
2022-11-20T06:04:38.000Z,1005
2022-11-20T06:05:54.000Z,1005
2022-11-20T06:07:10.000Z,1005.1
2022-11-20T06:08:27.000Z,1005
2022-11-20T06:09:43.000Z,1005
2022-11-20T06:10:59.000Z,1004.9
2022-11-20T06:12:16.000Z,1005
2022-11-20T06:13:31.000Z,1005
2022-11-20T06:14:47.000Z,1005.1
2022-11-20T06:16:04.000Z,1005
2022-11-20T06:17:20.000Z,1005
2022-11-20T06:18:36.000Z,1005
2022-11-20T06:19:52.000Z,1005
2022-11-20T06:21:09.000Z,1005
2022-11-20T06:22:25.000Z,1005
2022-11-20T06:23:41.000Z,1005
2022-11-20T06:24:57.000Z,1005.1
2022-11-20T06:26:14.000Z,1005
2022-11-20T06:27:30.000Z,1004.9
2022-11-20T06:28:46.000Z,1004.9
2022-11-20T06:30:02.000Z,1005.1
2022-11-20T06:31:18.000Z,1005
2022-11-20T06:32:34.000Z,1005
2022-11-20T06:33:50.000Z,1005
2022-11-20T06:36:23.000Z,1005
2022-11-20T06:37:39.000Z,1005.1
2022-11-20T06:38:55.000Z,1005
2022-11-20T06:40:12.000Z,1005
2022-11-20T06:41:28.000Z,1005
2022-11-20T06:42:44.000Z,1005
2022-11-20T06:44:00.000Z,1005.1
2022-11-20T06:45:17.000Z,1005.2
2022-11-20T06:46:32.000Z,1005.2
2022-11-20T06:47:48.000Z,1005.2
2022-11-20T06:49:04.000Z,1005.2
2022-11-20T06:50:21.000Z,1005.2
2022-11-20T06:51:37.000Z,1005.2
2022-11-20T06:52:53.000Z,1005.1
2022-11-20T06:54:09.000Z,1005.1
2022-11-20T06:55:25.000Z,1005.1
2022-11-20T06:56:42.000Z,1005.1
2022-11-20T06:57:58.000Z,1005.1
2022-11-20T06:59:14.000Z,1005
2022-11-20T07:00:30.000Z,1005.1
2022-11-20T07:01:47.000Z,1005.1
2022-11-20T07:03:02.000Z,1005.2
2022-11-20T07:04:18.000Z,1005.1
2022-11-20T07:05:34.000Z,1005.1
2022-11-20T07:06:51.000Z,1005.2
2022-11-20T07:08:07.000Z,1005.2
2022-11-20T07:09:23.000Z,1005.2
2022-11-20T07:10:39.000Z,1005.1
2022-11-20T07:11:56.000Z,1005.1
2022-11-20T07:13:12.000Z,1005.2
2022-11-20T07:14:28.000Z,1005.1
2022-11-20T07:15:44.000Z,1005.1
2022-11-20T07:17:00.000Z,1005.2
2022-11-20T07:18:17.000Z,1005.1
2022-11-20T07:19:32.000Z,1005.2
2022-11-20T07:20:48.000Z,1005.2
2022-11-20T07:22:04.000Z,1005.2
2022-11-20T07:23:21.000Z,1005.2
2022-11-20T07:24:37.000Z,1005.2
2022-11-20T07:27:09.000Z,1005.2
2022-11-20T07:28:26.000Z,1005.2
2022-11-20T07:29:42.000Z,1005.2
2022-11-20T07:30:58.000Z,1005.3
2022-11-20T07:32:14.000Z,1005.2
2022-11-20T07:33:31.000Z,1005.3
2022-11-20T07:34:47.000Z,1005.3
2022-11-20T07:36:02.000Z,1005.3
2022-11-20T07:37:18.000Z,1005.3
2022-11-20T07:38:34.000Z,1005.3
2022-11-20T07:39:51.000Z,1005.3
2022-11-20T07:41:07.000Z,1005.3
2022-11-20T07:42:23.000Z,1005.2
2022-11-20T07:43:39.000Z,1005.3
2022-11-20T07:44:56.000Z,1005.2
2022-11-20T07:46:12.000Z,1005.2
2022-11-20T07:47:28.000Z,1005.2
2022-11-20T07:48:44.000Z,1005.1
2022-11-20T07:50:01.000Z,1005.2
2022-11-20T07:51:17.000Z,1005.2
2022-11-20T07:52:32.000Z,1005.2
2022-11-20T07:53:48.000Z,1005.2
2022-11-20T07:55:05.000Z,1005.2
2022-11-20T07:56:21.000Z,1005.2
2022-11-20T07:57:36.000Z,1005.2
2022-11-20T07:58:52.000Z,1005.1
2022-11-20T08:00:08.000Z,1005.1
2022-11-20T08:01:25.000Z,1005.2
2022-11-20T08:02:41.000Z,1005.2
2022-11-20T08:05:13.000Z,1005.2
2022-11-20T08:06:30.000Z,1005.1
2022-11-20T08:07:46.000Z,1005.1
2022-11-20T08:09:02.000Z,1005.1
2022-11-20T08:10:18.000Z,1005.1
2022-11-20T08:11:35.000Z,1005
2022-11-20T08:12:51.000Z,1004.9
2022-11-20T08:14:06.000Z,1005.1
2022-11-20T08:15:22.000Z,1005
2022-11-20T08:16:39.000Z,1005
2022-11-20T08:17:55.000Z,1005
2022-11-20T08:19:11.000Z,1005
2022-11-20T08:20:27.000Z,1005
2022-11-20T08:21:43.000Z,1005
2022-11-20T08:24:16.000Z,1005
2022-11-20T08:25:32.000Z,1005
2022-11-20T08:26:48.000Z,1004.9
2022-11-20T08:28:05.000Z,1005
2022-11-20T08:29:21.000Z,1005
2022-11-20T08:30:36.000Z,1004.9
2022-11-20T08:31:52.000Z,1005
2022-11-20T08:33:09.000Z,1005
2022-11-20T08:34:25.000Z,1005
2022-11-20T08:35:41.000Z,1005.1
2022-11-20T08:36:57.000Z,1005.1
2022-11-20T08:38:14.000Z,1005.1
2022-11-20T08:39:30.000Z,1005.1
2022-11-20T08:40:46.000Z,1005.1
2022-11-20T08:42:02.000Z,1005.1
2022-11-20T08:43:18.000Z,1005.1
2022-11-20T08:44:35.000Z,1005.1
2022-11-20T08:45:51.000Z,1005.1
2022-11-20T08:47:06.000Z,1005.1
2022-11-20T08:48:22.000Z,1005.1
2022-11-20T08:49:39.000Z,1005.1
2022-11-20T08:50:55.000Z,1005.1
2022-11-20T08:52:11.000Z,1005.1
2022-11-20T08:53:27.000Z,1004.9
2022-11-20T08:56:00.000Z,1004.9
2022-11-20T08:57:16.000Z,1004.9
2022-11-20T08:58:32.000Z,1004.8
2022-11-20T08:59:49.000Z,1004.8
2022-11-20T09:01:05.000Z,1004.8
2022-11-20T09:02:21.000Z,1004.7
2022-11-20T09:03:36.000Z,1004.6
2022-11-20T09:04:52.000Z,1004.6
2022-11-20T09:06:09.000Z,1004.7
2022-11-20T09:07:25.000Z,1004.5
2022-11-20T09:08:41.000Z,1004.6
2022-11-20T09:09:57.000Z,1004.6
2022-11-20T09:11:14.000Z,1004.5
2022-11-20T09:12:30.000Z,1004.5
2022-11-20T09:13:46.000Z,1004.6
2022-11-20T09:15:02.000Z,1004.6
2022-11-20T09:16:19.000Z,1004.5
2022-11-20T09:17:35.000Z,1004.5
2022-11-20T09:18:51.000Z,1004.5
2022-11-20T09:20:06.000Z,1004.5
2022-11-20T09:21:23.000Z,1004.5
2022-11-20T09:22:39.000Z,1004.5
2022-11-20T09:23:55.000Z,1004.4
2022-11-20T09:25:11.000Z,1004.3
2022-11-20T09:26:27.000Z,1004.3
2022-11-20T09:27:44.000Z,1004.4
2022-11-20T09:30:16.000Z,1004.4
2022-11-20T09:31:32.000Z,1004.4
2022-11-20T09:34:05.000Z,1004.3
2022-11-20T09:35:21.000Z,1004.2
2022-11-20T09:36:37.000Z,1004.2
2022-11-20T09:37:53.000Z,1004.2
2022-11-20T09:39:09.000Z,1004.2
2022-11-20T09:40:25.000Z,1004.2
2022-11-20T09:41:41.000Z,1004.1
2022-11-20T09:42:58.000Z,1004.1
2022-11-20T09:44:14.000Z,1004.1
2022-11-20T09:46:46.000Z,1004.1
2022-11-20T09:48:01.000Z,1004
2022-11-20T09:49:17.000Z,1004.1
2022-11-20T09:50:33.000Z,1004.1
2022-11-20T09:51:49.000Z,1004.1
2022-11-20T09:53:05.000Z,1004
2022-11-20T09:55:38.000Z,1004
2022-11-20T09:56:54.000Z,1004
2022-11-20T09:58:10.000Z,1003.9
2022-11-20T09:59:27.000Z,1003.9
2022-11-20T10:01:59.000Z,1003.8
2022-11-20T10:03:15.000Z,1003.8
2022-11-20T10:04:31.000Z,1003.9
2022-11-20T10:05:46.000Z,1003.8
2022-11-20T10:07:02.000Z,1003.9
2022-11-20T10:08:18.000Z,1003.8
2022-11-20T10:09:34.000Z,1003.8
2022-11-20T10:12:07.000Z,1003.8
2022-11-20T10:13:23.000Z,1003.8
2022-11-20T10:14:39.000Z,1003.7
2022-11-20T10:15:56.000Z,1003.7
2022-11-20T10:17:12.000Z,1003.7
2022-11-20T10:19:44.000Z,1003.7
2022-11-20T10:21:01.000Z,1003.6
2022-11-20T10:22:17.000Z,1003.6
2022-11-20T10:24:48.000Z,1003.5
2022-11-20T10:26:05.000Z,1003.5
2022-11-20T10:27:21.000Z,1003.5
2022-11-20T10:28:37.000Z,1003.5
2022-11-20T10:29:53.000Z,1003.5
2022-11-20T10:32:26.000Z,1003.5
2022-11-20T10:33:42.000Z,1003.5
2022-11-20T10:34:58.000Z,1003.5
2022-11-20T10:36:14.000Z,1003.5
2022-11-20T10:37:31.000Z,1003.5
2022-11-20T10:38:47.000Z,1003.5
2022-11-20T10:40:02.000Z,1003.4
2022-11-20T10:41:18.000Z,1003.4
2022-11-20T10:42:35.000Z,1003.4
2022-11-20T10:43:51.000Z,1003.4
2022-11-20T10:45:07.000Z,1003.5
2022-11-20T10:46:23.000Z,1003.5
2022-11-20T10:47:40.000Z,1003.5
2022-11-20T10:48:56.000Z,1003.4
2022-11-20T10:50:12.000Z,1003.4
2022-11-20T10:51:27.000Z,1003.4
2022-11-20T10:52:43.000Z,1003.4
2022-11-20T10:53:59.000Z,1003.3
2022-11-20T10:55:15.000Z,1003.3
2022-11-20T10:56:31.000Z,1003.3
2022-11-20T10:57:47.000Z,1003.4
2022-11-20T10:59:04.000Z,1003.3
2022-11-20T11:00:20.000Z,1003.3
2022-11-20T11:01:36.000Z,1003.3
2022-11-20T11:02:52.000Z,1003.1
2022-11-20T11:05:25.000Z,1002.9
2022-11-20T11:06:41.000Z,1002.9
2022-11-20T11:07:57.000Z,1002.9
2022-11-20T11:09:13.000Z,1002.9
2022-11-20T11:10:29.000Z,1002.9
2022-11-20T11:11:45.000Z,1002.8
2022-11-20T11:13:01.000Z,1002.8
2022-11-20T11:14:17.000Z,1002.8
2022-11-20T11:15:34.000Z,1002.9
2022-11-20T11:16:50.000Z,1002.9
2022-11-20T11:18:06.000Z,1002.9
2022-11-20T11:19:21.000Z,1002.9
2022-11-20T11:20:37.000Z,1002.8
2022-11-20T11:21:53.000Z,1002.8
2022-11-20T11:23:09.000Z,1002.8
2022-11-20T11:24:25.000Z,1002.9
2022-11-20T11:25:42.000Z,1002.8
2022-11-20T11:26:58.000Z,1002.8
2022-11-20T11:28:14.000Z,1002.8
2022-11-20T11:29:30.000Z,1002.9
2022-11-20T11:30:47.000Z,1003
2022-11-20T11:32:03.000Z,1002.9
2022-11-20T11:33:19.000Z,1002.9
2022-11-20T11:34:35.000Z,1002.7
2022-11-20T11:35:51.000Z,1002.8
2022-11-20T11:37:07.000Z,1002.7
2022-11-20T11:38:23.000Z,1002.7
2022-11-20T11:39:39.000Z,1002.7
2022-11-20T11:40:55.000Z,1002.7
2022-11-20T11:42:12.000Z,1002.8
2022-11-20T11:43:28.000Z,1002.5
2022-11-20T11:44:44.000Z,1002.5
2022-11-20T11:46:00.000Z,1002.5
2022-11-20T11:47:17.000Z,1002.6
2022-11-20T11:48:33.000Z,1002.6
2022-11-20T11:49:49.000Z,1002.5
2022-11-20T11:53:38.000Z,1002.5
2022-11-20T11:54:53.000Z,1002.5
2022-11-20T11:56:09.746Z,1002.5
2022-11-20T11:57:25.000Z,1002.6
2022-11-20T11:58:42.000Z,1002.6
2022-11-20T12:01:14.000Z,1002.5
2022-11-20T12:02:29.000Z,1002.4
2022-11-20T12:03:45.000Z,1002.4
2022-11-20T12:05:01.000Z,1002.4
2022-11-20T12:06:17.000Z,1002.4
2022-11-20T12:07:33.000Z,1002.4
2022-11-20T12:08:50.000Z,1002.5
2022-11-20T12:10:06.000Z,1002.4
2022-11-20T12:11:22.000Z,1002.5
2022-11-20T12:12:37.000Z,1002.4
2022-11-20T12:13:54.000Z,1002.5
2022-11-20T12:15:10.000Z,1002.4
2022-11-20T12:16:25.000Z,1002.4
2022-11-20T12:17:40.000Z,1002.4
2022-11-20T12:18:57.000Z,1002.4
2022-11-20T12:20:13.000Z,1002.3
2022-11-20T12:22:45.000Z,1002.3
2022-11-20T12:24:01.000Z,1002.2
2022-11-20T12:25:18.000Z,1002.1
2022-11-20T12:26:34.000Z,1002.1
2022-11-20T12:27:50.000Z,1002.1
2022-11-20T12:29:06.000Z,1002.1
2022-11-20T12:31:39.000Z,1002.1
2022-11-20T12:32:54.000Z,1002.2
2022-11-20T12:34:09.000Z,1002.2
2022-11-20T12:35:26.000Z,1002.2
2022-11-20T12:36:42.000Z,1002.2
2022-11-20T12:37:58.000Z,1002.2
2022-11-20T12:39:14.000Z,1002.2
2022-11-20T12:40:31.000Z,1002.2
2022-11-20T12:41:47.000Z,1002.2
2022-11-20T12:43:03.000Z,1002.2
2022-11-20T12:45:35.000Z,1002.3
2022-11-20T12:46:52.000Z,1002.2
2022-11-20T12:48:08.000Z,1002.2
2022-11-20T12:49:24.000Z,1002.2
2022-11-20T12:50:39.000Z,1002.2
2022-11-20T12:51:56.000Z,1002.2
2022-11-20T12:53:12.000Z,1002.3
2022-11-20T12:54:28.000Z,1002.3
2022-11-20T12:57:01.000Z,1002.2
2022-11-20T12:58:16.000Z,1002.2
2022-11-20T12:59:31.000Z,1002.1
2022-11-20T13:00:47.000Z,1002.1
2022-11-20T13:02:04.000Z,1002.2
2022-11-20T13:03:20.000Z,1002.2
2022-11-20T13:04:36.000Z,1002.1
2022-11-20T13:05:52.000Z,1002.2
2022-11-20T13:07:09.000Z,1002.1
2022-11-20T13:09:41.000Z,1002.1
2022-11-20T13:10:57.000Z,1002.1
2022-11-20T13:12:13.000Z,1002.1
2022-11-20T13:13:30.000Z,1002.1
2022-11-20T13:14:46.000Z,1002
2022-11-20T13:17:17.000Z,1002
2022-11-20T13:18:34.000Z,1002
2022-11-20T13:19:50.000Z,1002
2022-11-20T13:21:06.000Z,1001.9
2022-11-20T13:23:39.000Z,1001.9
2022-11-20T13:24:55.000Z,1001.8
2022-11-20T13:26:11.000Z,1001.9
2022-11-20T13:27:27.000Z,1001.8
2022-11-20T13:28:44.000Z,1001.7
2022-11-20T13:30:00.000Z,1001.7
2022-11-20T13:31:16.000Z,1001.6
2022-11-20T13:32:31.000Z,1001.6
2022-11-20T13:36:20.000Z,1001.5
2022-11-20T13:37:36.000Z,1001.5
2022-11-20T13:38:52.000Z,1001.6
2022-11-20T13:40:09.000Z,1001.6
2022-11-20T13:41:25.000Z,1001.6
2022-11-20T13:42:41.000Z,1001.5
2022-11-20T13:43:57.000Z,1001.5
2022-11-20T13:45:14.000Z,1001.6
2022-11-20T13:46:30.000Z,1001.6
2022-11-20T13:47:46.000Z,1001.6
2022-11-20T13:49:01.000Z,1001.5
2022-11-20T13:50:18.000Z,1001.5
2022-11-20T13:51:34.000Z,1001.5
2022-11-20T13:52:50.000Z,1001.5
2022-11-20T13:54:06.000Z,1001.4
2022-11-20T13:55:22.000Z,1001.4
2022-11-20T13:56:39.000Z,1001.3
2022-11-20T13:57:55.000Z,1001.3
2022-11-20T14:00:27.000Z,1001.3
2022-11-20T14:01:44.000Z,1001.3
2022-11-20T14:03:00.000Z,1001.3
2022-11-20T14:04:16.000Z,1001.2
2022-11-20T14:05:31.000Z,1001.2
2022-11-20T14:06:48.000Z,1001.2
2022-11-20T14:08:04.000Z,1001.1
2022-11-20T14:09:20.000Z,1001.1
2022-11-20T14:10:36.000Z,1001.1
2022-11-20T14:13:09.000Z,1001.2
2022-11-20T14:14:25.000Z,1001.1
2022-11-20T14:15:41.000Z,1001.1
2022-11-20T14:16:58.000Z,1001.2
2022-11-20T14:18:14.000Z,1001.1
2022-11-20T14:19:30.000Z,1001.1
2022-11-20T14:20:46.000Z,1001.1
2022-11-20T14:22:03.000Z,1001
2022-11-20T14:23:18.000Z,1001
2022-11-20T14:24:34.000Z,1001
2022-11-20T14:25:50.000Z,1000.9
2022-11-20T14:27:06.000Z,1000.9
2022-11-20T14:28:23.000Z,1001
2022-11-20T14:29:39.000Z,1001
2022-11-20T14:30:55.000Z,1001
2022-11-20T14:32:10.000Z,1000.9
2022-11-20T14:33:26.000Z,1000.9
2022-11-20T14:34:42.000Z,1000.9
2022-11-20T14:35:58.000Z,1000.9
2022-11-20T14:38:31.000Z,1001
2022-11-20T14:39:47.000Z,1000.9
2022-11-20T14:41:03.000Z,1000.9
2022-11-20T14:42:19.000Z,1000.9
2022-11-20T14:43:36.000Z,1000.9
2022-11-20T14:44:52.000Z,1000.9
2022-11-20T14:46:08.000Z,1000.9
2022-11-20T14:47:24.000Z,1000.9
2022-11-20T14:48:40.000Z,1001
2022-11-20T14:51:12.000Z,1000.9
2022-11-20T14:52:27.000Z,1000.9
2022-11-20T14:53:42.000Z,1000.9
2022-11-20T14:54:59.000Z,1000.8
2022-11-20T14:56:15.000Z,1000.8
2022-11-20T14:57:31.000Z,1000.8
2022-11-20T14:58:47.000Z,1000.8
2022-11-20T15:00:04.000Z,1000.7
2022-11-20T15:01:20.000Z,1000.8
2022-11-20T15:02:36.000Z,1000.8
2022-11-20T15:03:52.000Z,1000.7
2022-11-20T15:05:09.000Z,1000.7
2022-11-20T15:06:24.000Z,1000.7
2022-11-20T15:07:39.000Z,1000.7
2022-11-20T15:08:55.000Z,1000.7
2022-11-20T15:10:12.000Z,1000.7
2022-11-20T15:11:28.000Z,1000.6
2022-11-20T15:12:44.000Z,1000.6
2022-11-20T15:14:00.000Z,1000.5
2022-11-20T15:16:33.000Z,1000.6
2022-11-20T15:17:49.000Z,1000.5
2022-11-20T15:19:05.000Z,1000.5
2022-11-20T15:20:21.000Z,1000.4
2022-11-20T15:21:38.000Z,1000.5
2022-11-20T15:22:54.000Z,1000.4
2022-11-20T15:24:09.000Z,1000.4
2022-11-20T15:25:25.000Z,1000.4
2022-11-20T15:29:14.000Z,1000.2
2022-11-20T15:30:29.000Z,1000.2
2022-11-20T15:31:45.000Z,1000.3
2022-11-20T15:33:01.000Z,1000.2
2022-11-20T15:34:17.000Z,1000.2
2022-11-20T15:35:33.000Z,1000.1
2022-11-20T15:36:50.000Z,1000.2
2022-11-20T15:38:06.000Z,1000.3
2022-11-20T15:39:22.000Z,1000.2
2022-11-20T15:40:38.000Z,1000.2
2022-11-20T15:41:54.000Z,1000.2
2022-11-20T15:43:11.000Z,1000.1
2022-11-20T15:44:26.000Z,1000.1
2022-11-20T15:45:41.000Z,1000.1
2022-11-20T15:46:57.000Z,1000.1
2022-11-20T15:48:14.000Z,1000
2022-11-20T15:49:30.000Z,1000
2022-11-20T15:50:46.000Z,1000
2022-11-20T15:52:02.000Z,999.9
2022-11-20T15:54:35.000Z,999.9
2022-11-20T15:55:51.000Z,999.9
2022-11-20T15:57:07.000Z,999.8
2022-11-20T15:58:24.000Z,999.8
2022-11-20T15:59:40.000Z,999.8
2022-11-20T16:00:56.000Z,999.9
2022-11-20T16:02:11.000Z,999.9
2022-11-20T16:03:28.000Z,999.8
2022-11-20T16:04:44.000Z,999.9
2022-11-20T16:07:17.000Z,999.9
2022-11-20T16:08:32.000Z,999.8
2022-11-20T16:09:47.000Z,999.7
2022-11-20T16:11:04.000Z,999.7
2022-11-20T16:12:20.000Z,999.7
2022-11-20T16:13:36.000Z,999.6
2022-11-20T16:14:52.000Z,999.6
2022-11-20T16:16:09.000Z,999.6
2022-11-20T16:17:25.000Z,999.6
2022-11-20T16:18:41.000Z,999.6
2022-11-20T16:19:58.000Z,999.6
2022-11-20T16:21:14.000Z,999.6
2022-11-20T16:22:29.000Z,999.5
2022-11-20T16:23:44.000Z,999.6
2022-11-20T16:25:01.000Z,999.6
2022-11-20T16:26:17.000Z,999.6
2022-11-20T16:27:32.000Z,999.6
2022-11-20T16:30:05.000Z,999.6
2022-11-20T16:32:37.000Z,999.6
2022-11-20T16:33:54.000Z,999.5
2022-11-20T16:35:10.000Z,999.5
2022-11-20T16:36:26.000Z,999.5
2022-11-20T16:37:43.000Z,999.5
2022-11-20T16:38:58.000Z,999.5
2022-11-20T16:40:13.000Z,999.5
2022-11-20T16:41:30.000Z,999.5
2022-11-20T16:42:46.000Z,999.4
2022-11-20T16:45:18.000Z,999.4
2022-11-20T16:46:35.000Z,999.4
2022-11-20T16:47:51.000Z,999.4
2022-11-20T16:49:07.000Z,999.3
2022-11-20T16:50:24.000Z,999.3
2022-11-20T16:51:40.000Z,999.2
2022-11-20T16:52:56.000Z,999.3
2022-11-20T16:54:12.000Z,999.2
2022-11-20T16:55:29.000Z,999.3
2022-11-20T16:56:44.000Z,999.2
2022-11-20T16:58:00.000Z,999.2
2022-11-20T16:59:17.000Z,999.1
2022-11-20T17:00:33.000Z,999.1
2022-11-20T17:01:49.000Z,999
2022-11-20T17:03:05.000Z,999
2022-11-20T17:04:22.000Z,999
2022-11-20T17:05:38.000Z,999
2022-11-20T17:06:53.000Z,999
2022-11-20T17:08:10.000Z,999
2022-11-20T17:09:25.000Z,998.9
2022-11-20T17:10:41.000Z,998.9
2022-11-20T17:11:58.000Z,998.9
2022-11-20T17:13:14.000Z,998.9